Time;durP1;ratioP1;P1;durP2;ratioP2;P2;SDS_P1;SDS_P2;PMS_P1;PMS_P2;Temp;Humidity;BMP_temperature;BMP_pressure;BME280_temperature;BME280_humidity;BME280_pressure;Samples;Min_cycle;Max_cycle;Signal;HPM_P1;HPM_P2
2021/04/15 00:01:18;;;;;;;5.75;3.13;;;;;;;11.93;32.75;100314.22;4956804;28;20377;-69
2021/04/15 00:03:44;;;;;;;6.05;3.47;;;;;;;11.95;32.83;100315.53;4957412;28;20046;-69
2021/04/15 00:06:15;;;;;;;4.60;3.08;;;;;;;11.80;32.85;100294.69;4957357;28;20023;-69
2021/04/15 00:08:41;;;;;;;4.97;2.97;;;;;;;11.70;32.93;100280.28;4957900;28;20023;-69
2021/04/15 00:11:07;;;;;;;5.43;3.47;;;;;;;11.90;32.98;100314.81;4966010;28;20027;-69
2021/04/15 00:13:36;;;;;;;5.65;3.33;;;;;;;11.82;33.16;100316.25;4957767;28;20019;-70
2021/04/15 00:16:03;;;;;;;11.27;3.50;;;;;;;11.71;33.46;100315.53;4957080;28;20385;-71
2021/04/15 00:18:29;;;;;;;4.43;3.10;;;;;;;11.61;33.36;100307.44;4960766;28;20286;-70
2021/04/15 00:20:54;;;;;;;5.80;3.45;;;;;;;11.63;33.70;100303.31;4961330;28;20042;-69
2021/04/15 00:23:20;;;;;;;6.80;3.08;;;;;;;11.62;33.19;100309.88;4960547;28;20066;-69
2021/04/15 00:25:46;;;;;;;6.50;3.38;;;;;;;11.53;33.20;100300.66;4961282;28;20023;-70
2021/04/15 00:28:13;;;;;;;7.13;3.30;;;;;;;11.56;33.35;100296.56;4960617;28;20054;-70
2021/04/15 00:30:38;;;;;;;4.78;3.00;;;;;;;11.51;33.78;100302.88;4960304;28;20031;-69
2021/04/15 00:33:07;;;;;;;3.58;2.70;;;;;;;11.45;33.95;100302.13;4960998;28;20038;-70
2021/04/15 00:35:32;;;;;;;6.32;3.20;;;;;;;11.36;34.33;100292.91;4965005;28;20023;-70
2021/04/15 00:37:57;;;;;;;5.20;3.13;;;;;;;11.31;34.40;100291.03;4960746;28;20027;-69
2021/04/15 00:40:24;;;;;;;6.28;3.38;;;;;;;11.31;34.43;100288.31;4961366;28;20034;-70
2021/04/15 00:42:50;;;;;;;8.27;3.30;;;;;;;11.26;34.42;100290.25;4960760;28;20027;-70
2021/04/15 00:45:20;;;;;;;7.38;3.40;;;;;;;11.23;34.78;100288.91;4960721;28;20030;-71
2021/04/15 00:47:54;;;;;;;6.03;3.53;;;;;;;11.16;34.86;100280.25;4957439;28;20058;-70
2021/04/15 00:50:26;;;;;;;4.95;2.92;;;;;;;11.10;35.39;100281.41;4960456;28;20063;-70
2021/04/15 00:52:57;;;;;;;5.07;3.00;;;;;;;10.91;35.21;100262.97;4960202;28;20038;-69
2021/04/15 00:55:27;;;;;;;4.60;3.10;;;;;;;10.99;35.38;100270.56;4960884;28;20062;-69
2021/04/15 00:57:53;;;;;;;5.25;3.42;;;;;;;11.00;34.98;100271.34;4960268;28;20030;-70
2021/04/15 01:00:25;;;;;;;4.57;3.28;;;;;;;11.02;35.33;100277.34;4959042;28;20050;-70
2021/04/15 01:02:51;;;;;;;5.90;3.40;;;;;;;10.99;34.99;100281.47;4960205;28;20031;-70
2021/04/15 01:05:22;;;;;;;4.90;3.40;;;;;;;10.95;35.49;100268.69;4960114;28;20085;-70
2021/04/15 01:07:49;;;;;;;4.43;3.33;;;;;;;10.92;35.44;100271.97;4960422;28;20122;-70
2021/04/15 01:10:15;;;;;;;5.10;3.50;;;;;;;10.91;35.49;100268.44;4968965;28;20495;-70
2021/04/15 01:12:51;;;;;;;6.18;3.25;;;;;;;10.88;35.13;100262.72;4960039;28;20019;-70
2021/04/15 01:15:47;;;;;;;5.25;3.40;;;;;;;10.81;35.21;100274.78;4956582;28;20024;-70
2021/04/15 01:18:30;;;;;;;4.68;3.38;;;;;;;10.76;35.36;100269.34;4959877;28;20055;-69
2021/04/15 01:21:09;;;;;;;7.65;3.40;;;;;;;10.72;35.32;100271.03;4959951;28;20587;-69
2021/04/15 01:23:51;;;;;;;7.10;3.33;;;;;;;10.75;35.06;100264.97;4960234;28;20023;-69
2021/04/15 01:26:28;;;;;;;4.72;3.20;;;;;;;10.73;35.06;100272.66;4959980;28;20074;-70
2021/04/15 01:29:13;;;;;;;5.20;3.53;;;;;;;10.73;35.26;100267.19;4959282;28;20083;-69
2021/04/15 01:31:57;;;;;;;4.32;3.05;;;;;;;10.70;34.99;100260.38;4959332;28;20404;-69
2021/04/15 01:34:37;;;;;;;6.80;3.40;;;;;;;10.69;34.88;100264.22;4960048;28;20134;-70
2021/04/15 01:37:28;;;;;;;6.30;3.50;;;;;;;10.70;34.80;100268.56;4964686;28;20474;-70
2021/04/15 01:40:00;;;;;;;8.20;3.72;;;;;;;10.65;34.85;100265.06;4959661;28;20085;-69
2021/04/15 01:42:35;;;;;;;8.25;3.10;;;;;;;10.63;34.79;100259.06;4952241;28;20058;-69
2021/04/15 01:45:10;;;;;;;4.60;3.08;;;;;;;10.60;35.01;100270.53;4959317;28;20035;-69
2021/04/15 01:47:52;;;;;;;6.03;2.95;;;;;;;10.54;34.99;100262.41;4959853;28;20019;-69
2021/04/15 01:50:28;;;;;;;3.97;2.90;;;;;;;10.31;35.42;100244.75;4959249;28;20113;-70
2021/04/15 01:52:58;;;;;;;6.40;3.67;;;;;;;10.40;35.66;100264.13;4959694;28;20027;-69
2021/04/15 01:55:59;;;;;;;4.38;3.33;;;;;;;10.37;35.56;100262.75;4959551;28;20574;-69
2021/04/15 01:58:32;;;;;;;5.00;3.53;;;;;;;10.26;35.69;100263.03;4937233;28;20031;-69
2021/04/15 02:01:05;;;;;;;5.10;3.28;;;;;;;10.23;36.08;100267.16;4958970;28;20033;-69
2021/04/15 02:03:34;;;;;;;4.47;3.33;;;;;;;10.18;36.07;100267.97;4959700;28;20499;-70
2021/04/15 02:06:04;;;;;;;5.97;3.40;;;;;;;10.12;36.36;100271.84;4958839;28;20027;-70
2021/04/15 02:08:42;;;;;;;4.70;3.20;;;;;;;9.98;36.62;100251.72;4959413;28;20027;-69
2021/04/15 02:11:16;;;;;;;8.13;3.63;;;;;;;10.11;36.03;100278.38;4958742;28;20063;-69
2021/04/15 02:13:44;;;;;;;5.03;3.38;;;;;;;10.11;36.34;100263.94;4959032;28;20062;-69
2021/04/15 02:16:14;;;;;;;11.35;3.78;;;;;;;10.10;36.38;100276.75;4958857;28;20035;-69
2021/04/15 02:18:43;;;;;;;12.77;4.30;;;;;;;10.09;36.50;100277.81;4958798;28;20023;-69
2021/04/15 02:21:49;;;;;;;15.40;4.07;;;;;;;10.07;36.92;100275.38;4958384;28;20086;-70
2021/04/15 02:24:20;;;;;;;15.95;5.13;;;;;;;10.01;37.07;100278.41;4950487;28;20027;-69
2021/04/15 02:26:49;;;;;;;10.50;4.40;;;;;;;9.97;37.61;100283.59;4958635;28;20034;-70
2021/04/15 02:29:22;;;;;;;11.05;4.38;;;;;;;9.93;37.76;100280.59;4958705;28;20520;-69
2021/04/15 02:32:24;;;;;;;9.63;4.38;;;;;;;9.87;37.92;100286.38;4958256;28;20034;-70
2021/04/15 02:34:58;;;;;;;7.13;4.47;;;;;;;9.80;38.11;100269.47;4957386;28;20043;-69
2021/04/15 02:37:37;;;;;;;10.18;4.47;;;;;;;9.72;38.42;100266.22;4961158;28;20015;-69
2021/04/15 02:40:11;;;;;;;10.07;4.72;;;;;;;9.67;38.89;100268.97;4958654;28;20027;-70
2021/04/15 02:42:39;;;;;;;8.73;4.68;;;;;;;9.63;39.29;100275.25;4952463;28;20543;-69
2021/04/15 02:45:19;;;;;;;7.63;4.55;;;;;;;9.57;39.30;100277.16;4958461;28;20037;-69
2021/04/15 02:47:49;;;;;;;7.10;4.47;;;;;;;9.52;39.66;100277.16;4956692;28;20416;-69
2021/04/15 02:50:17;;;;;;;7.72;4.88;;;;;;;9.49;39.36;100281.25;4958622;28;20027;-69
2021/04/15 02:52:46;;;;;;;6.07;4.78;;;;;;;9.46;39.51;100270.91;4957967;28;20027;-70
2021/04/15 02:55:17;;;;;;;7.72;4.85;;;;;;;9.41;39.81;100277.16;4958836;28;20019;-69
2021/04/15 02:57:52;;;;;;;9.60;4.80;;;;;;;9.36;40.27;100276.34;4958214;28;20374;-69
2021/04/15 03:00:23;;;;;;;7.70;4.90;;;;;;;9.30;40.32;100275.53;4957263;28;20102;-70
2021/04/15 03:02:56;;;;;;;8.05;4.43;;;;;;;9.24;40.54;100280.19;4958557;28;20028;-70
2021/04/15 03:05:25;;;;;;;8.73;4.97;;;;;;;9.21;40.91;100274.47;4958058;28;20035;-69
2021/04/15 03:07:54;;;;;;;10.95;4.78;;;;;;;9.12;41.13;100279.63;4958439;28;20127;-69
2021/04/15 03:10:27;;;;;;;6.78;4.40;;;;;;;8.91;41.02;100259.75;4964147;28;20020;-69
2021/04/15 03:13:00;;;;;;;7.35;4.25;;;;;;;9.04;41.28;100274.72;4948630;28;20023;-69
2021/04/15 03:15:29;;;;;;;7.25;4.40;;;;;;;9.03;41.33;100273.09;4957316;28;20047;-69
2021/04/15 03:17:59;;;;;;;5.88;4.07;;;;;;;9.04;41.35;100282.88;4950111;28;20031;-68
2021/04/15 03:20:41;;;;;;;7.57;4.20;;;;;;;9.05;41.31;100279.09;4957559;28;20038;-69
2021/04/15 03:23:32;;;;;;;11.00;4.50;;;;;;;9.03;41.25;100276.66;4957992;28;20314;-69
2021/04/15 03:26:07;;;;;;;9.98;4.82;;;;;;;8.98;41.40;100274.75;4957914;28;20039;-69
2021/04/15 03:28:42;;;;;;;8.65;4.45;;;;;;;8.93;41.37;100266.56;4957684;28;20058;-70
2021/04/15 03:31:17;;;;;;;9.60;4.00;;;;;;;8.83;41.61;100272.00;4956966;28;20464;-70
2021/04/15 03:34:02;;;;;;;10.15;3.92;;;;;;;8.78;42.09;100266.53;4958283;28;20027;-69
2021/04/15 03:36:39;;;;;;;7.22;4.10;;;;;;;8.64;42.08;100252.66;4962814;28;20054;-70
2021/04/15 03:39:18;;;;;;;6.05;4.03;;;;;;;8.79;42.04;100269.00;4958069;28;20033;-69
2021/04/15 03:41:48;;;;;;;5.22;3.97;;;;;;;8.79;42.12;100262.75;4957756;28;20039;-69
2021/04/15 03:44:30;;;;;;;8.93;4.50;;;;;;;8.79;42.32;100269.00;4957644;28;20110;-69
2021/04/15 03:47:10;;;;;;;10.15;4.82;;;;;;;8.77;41.99;100264.91;4957420;28;20033;-69
2021/04/15 03:49:46;;;;;;;8.02;4.55;;;;;;;8.49;42.39;100229.78;4957971;28;20027;-69
2021/04/15 03:52:24;;;;;;;6.50;4.47;;;;;;;8.69;42.11;100268.97;4957719;28;20031;-69
2021/04/15 03:54:56;;;;;;;11.27;4.30;;;;;;;8.68;42.38;100266.53;4964392;28;20055;-69
2021/04/15 03:57:24;;;;;;;6.13;4.40;;;;;;;8.68;42.69;100270.06;4963878;28;20039;-69
2021/04/15 03:59:55;;;;;;;8.27;4.90;;;;;;;8.66;42.44;100278.50;4964058;28;20038;-70
2021/04/15 04:02:28;;;;;;;7.40;4.65;;;;;;;8.65;42.99;100267.88;4962952;28;20106;-69
2021/04/15 04:05:07;;;;;;;7.10;4.90;;;;;;;8.62;43.36;100269.22;4953813;28;20432;-68
2021/04/15 04:07:37;;;;;;;7.65;4.90;;;;;;;8.59;43.41;100283.38;4963575;28;20055;-70
2021/04/15 04:10:09;;;;;;;6.28;5.00;;;;;;;8.59;43.45;100279.81;4968618;28;20467;-68
2021/04/15 04:12:45;;;;;;;7.40;5.13;;;;;;;8.58;43.68;100270.88;4963798;28;20074;-68
2021/04/15 04:15:26;;;;;;;7.75;4.60;;;;;;;8.38;43.93;100249.03;4958728;28;20023;-68
2021/04/15 04:18:00;;;;;;;6.80;5.20;;;;;;;8.52;43.54;100277.34;4964267;28;20079;-68
2021/04/15 04:20:30;;;;;;;11.57;5.68;;;;;;;8.33;43.83;100258.81;4963560;28;20063;-68
2021/04/15 04:23:11;;;;;;;6.53;4.93;;;;;;;8.49;44.18;100280.63;4963721;28;20023;-68
2021/04/15 04:25:45;;;;;;;9.07;5.32;;;;;;;8.41;44.29;100281.13;4963353;28;20504;-70
2021/04/15 04:28:33;;;;;;;8.32;4.93;;;;;;;8.41;44.56;100289.25;4963793;28;20039;-67
2021/04/15 04:31:16;;;;;;;7.85;5.18;;;;;;;8.37;44.39;100283.56;4963298;28;20023;-67
2021/04/15 04:33:51;;;;;;;7.47;5.60;;;;;;;8.31;44.76;100293.56;4962819;28;20444;-68
2021/04/15 04:36:19;;;;;;;6.60;4.82;;;;;;;8.32;44.63;100294.38;4965892;28;20027;-69
2021/04/15 04:38:45;;;;;;;9.20;5.45;;;;;;;8.30;44.64;100302.81;4963450;28;20107;-69
2021/04/15 04:41:26;;;;;;;8.82;5.40;;;;;;;8.30;44.83;100310.94;4962751;28;20488;-68
2021/04/15 04:43:55;;;;;;;6.90;5.35;;;;;;;8.10;45.27;100281.00;4963398;28;20110;-68
2021/04/15 04:46:42;;;;;;;5.78;4.93;;;;;;;8.23;45.34;100306.84;4962839;28;20039;-69
2021/04/15 04:49:18;;;;;;;6.30;5.45;;;;;;;8.21;45.32;100298.97;4963382;28;20058;-68
2021/04/15 04:51:50;;;;;;;10.43;5.38;;;;;;;8.14;45.31;100303.81;4963756;28;20031;-68
2021/04/15 04:54:18;;;;;;;10.32;5.20;;;;;;;8.01;45.81;100295.09;4963734;28;20034;-67
2021/04/15 04:56:50;;;;;;;9.25;5.22;;;;;;;7.95;46.04;100300.75;4963234;28;20029;-68
2021/04/15 04:59:26;;;;;;;7.28;5.03;;;;;;;7.93;46.22;100306.44;4963154;28;20110;-69
2021/04/15 05:01:51;;;;;;;7.20;5.00;;;;;;;7.92;46.05;100310.22;4962707;28;20031;-68
2021/04/15 05:04:20;;;;;;;7.13;5.53;;;;;;;7.99;45.85;100320.84;4959939;28;20046;-69
2021/04/15 05:06:47;;;;;;;7.65;5.78;;;;;;;8.00;45.94;100315.16;4959954;28;20062;-70
2021/04/15 05:09:18;;;;;;;11.23;5.75;;;;;;;8.00;46.17;100311.63;4964748;28;20052;-68
2021/04/15 05:11:48;;;;;;;12.27;5.93;;;;;;;7.96;46.06;100314.03;4954873;28;20090;-70
2021/04/15 05:14:23;;;;;;;8.68;6.00;;;;;;;7.99;46.49;100321.69;4959351;28;20062;-69
2021/04/15 05:16:50;;;;;;;;;;;;;;;7.95;45.84;100325.97;4957481;28;20050;-68
2021/04/15 05:19:17;;;;;;;9.73;5.95;;;;;;;7.93;46.18;100324.63;4960393;28;20307;-68
2021/04/15 05:21:44;;;;;;;8.18;5.80;;;;;;;7.94;46.08;100323.53;4959892;28;20492;-67
2021/04/15 05:24:18;;;;;;;8.45;6.07;;;;;;;7.95;46.15;100323.25;4960537;28;20043;-69
2021/04/15 05:26:45;;;;;;;9.32;6.05;;;;;;;7.91;46.17;100307.75;4959953;28;20055;-67
2021/04/15 05:29:20;;;;;;;7.43;6.10;;;;;;;7.70;46.66;100284.03;4959886;28;20047;-68
2021/04/15 05:31:47;;;;;;;8.60;5.68;;;;;;;7.94;46.32;100320.81;4959532;28;20042;-69
2021/04/15 05:34:29;;;;;;;9.40;6.07;;;;;;;7.96;46.35;100324.09;4960352;28;20399;-67
2021/04/15 05:36:59;;;;;;;9.68;5.93;;;;;;;7.93;46.78;100332.75;4959953;28;20100;-68
2021/04/15 05:39:26;;;;;;;10.10;5.70;;;;;;;7.92;46.56;100329.25;4959758;28;20026;-68
2021/04/15 05:41:57;;;;;;;8.98;5.85;;;;;;;7.92;46.94;100329.25;4960057;28;20035;-68
2021/04/15 05:44:40;;;;;;;9.90;6.47;;;;;;;7.95;46.51;100330.59;4959222;28;20408;-67
2021/04/15 05:47:26;;;;;;;9.32;6.18;;;;;;;7.92;46.77;100329.25;4959587;28;20086;-67
2021/04/15 05:50:04;;;;;;;10.00;6.07;;;;;;;7.94;46.84;100331.69;4959662;28;20406;-68
2021/04/15 05:52:38;;;;;;;7.38;6.15;;;;;;;7.94;46.71;100340.63;4954391;28;20563;-67
2021/04/15 05:55:33;;;;;;;8.00;6.38;;;;;;;7.96;46.86;100349.34;4959512;28;20086;-68
2021/04/15 05:58:10;;;;;;;8.45;6.13;;;;;;;7.92;46.70;100356.38;4959320;28;20058;-67
2021/04/15 06:00:39;;;;;;;7.25;6.18;;;;;;;7.88;47.15;100357.97;4959376;28;20038;-68
2021/04/15 06:03:10;;;;;;;10.23;6.38;;;;;;;7.88;47.09;100355.25;4958925;28;20050;-69
2021/04/15 06:05:48;;;;;;;8.02;6.10;;;;;;;7.91;47.00;100357.47;4959072;28;20122;-67
2021/04/15 06:08:14;;;;;;;13.32;6.95;;;;;;;7.78;47.18;100339.72;4959859;28;20035;-67
2021/04/15 06:10:40;;;;;;;10.63;6.78;;;;;;;7.96;46.87;100368.34;4965631;28;20059;-67
2021/04/15 06:13:44;;;;;;;10.52;6.30;;;;;;;8.00;47.08;100374.06;4959209;28;20031;-67
2021/04/15 06:16:19;;;;;;;8.73;6.30;;;;;;;7.97;47.07;100367.28;4955052;28;20045;-67
2021/04/15 06:18:58;;;;;;;11.38;7.10;;;;;;;7.92;47.54;100369.97;4959606;28;20034;-67
2021/04/15 06:21:31;;;;;;;10.80;7.38;;;;;;;7.93;47.49;100381.63;4958985;28;20114;-67
2021/04/15 06:24:24;;;;;;;15.82;6.70;;;;;;;7.98;47.67;100368.91;4951743;28;20058;-68
2021/04/15 06:27:00;;;;;;;10.38;6.45;;;;;;;7.97;47.55;100370.00;4952895;28;20054;-70
2021/04/15 06:29:33;;;;;;;;;;;;;;;7.92;47.47;100378.13;4953028;28;20051;-67
2021/04/15 06:32:02;;;;;;;12.02;6.55;;;;;;;7.86;47.73;100369.09;4954592;28;19937;-67
2021/04/15 06:34:28;;;;;;;9.40;6.60;;;;;;;7.92;47.76;100378.13;4959055;28;20078;-67
2021/04/15 06:36:58;;;;;;;12.20;6.47;;;;;;;8.00;47.48;100385.78;4960259;28;20110;-67
2021/04/15 06:39:36;;;;;;;9.02;6.70;;;;;;;8.07;47.76;100380.09;4959020;28;20039;-67
2021/04/15 06:42:22;;;;;;;9.23;6.50;;;;;;;8.08;47.76;100373.59;4958540;28;20045;-69
2021/04/15 06:45:00;;;;;;;16.42;7.32;;;;;;;8.07;47.56;100387.44;4957793;28;20077;-69
2021/04/15 06:47:39;;;;;;;9.13;6.38;;;;;;;8.07;47.85;100390.16;4961527;28;20030;-69
2021/04/15 06:50:43;;;;;;;9.10;6.45;;;;;;;8.13;47.56;100387.22;4957469;28;20038;-69
2021/04/15 06:53:08;;;;;;;11.02;6.75;;;;;;;8.14;47.82;100379.88;4937357;28;20039;-69
2021/04/15 06:56:02;;;;;;;14.23;7.05;;;;;;;8.21;47.77;100385.06;4957969;28;20019;-69
2021/04/15 06:58:45;;;;;;;10.00;6.80;;;;;;;8.26;47.59;100387.81;4949446;28;20059;-69
2021/04/15 07:01:33;;;;;;;11.55;6.65;;;;;;;8.31;47.58;100385.94;4961586;28;20029;-69
2021/04/15 07:04:30;;;;;;;9.15;6.70;;;;;;;8.35;47.24;100383.50;4962322;28;20464;-70
2021/04/15 07:07:01;;;;;;;12.10;7.40;;;;;;;8.33;47.22;100383.78;4970539;28;20026;-70
2021/04/15 07:09:54;;;;;;;9.50;6.70;;;;;;;8.40;47.18;100377.28;4965553;28;20085;-67
2021/04/15 07:12:31;;;;;;;10.25;6.78;;;;;;;8.45;47.52;100374.59;4955359;28;20600;-68
2021/04/15 07:15:20;;;;;;;15.25;7.93;;;;;;;8.52;47.10;100383.34;4956145;28;20407;-70
2021/04/15 07:18:22;;;;;;;9.38;6.40;;;;;;;8.60;46.92;100380.13;4960418;28;20101;-70
2021/04/15 07:21:12;;;;;;;11.48;7.07;;;;;;;8.66;47.01;100380.97;4951095;28;20023;-70
2021/04/15 07:24:09;;;;;;;12.63;6.50;;;;;;;8.74;46.86;100383.16;4956041;28;20034;-69
2021/04/15 07:26:56;;;;;;;7.53;4.88;;;;;;;8.87;46.24;100381.03;4956859;28;20035;-69
2021/04/15 07:29:39;;;;;;;9.77;5.03;;;;;;;8.98;45.49;100375.38;4957581;28;20412;-69
2021/04/15 07:32:14;;;;;;;6.80;4.57;;;;;;;9.09;45.35;100378.13;4955497;28;20038;-68
2021/04/15 07:34:59;;;;;;;7.47;4.65;;;;;;;9.21;44.89;100377.84;4957316;28;20086;-70
2021/04/15 07:37:49;;;;;;;8.85;4.68;;;;;;;9.37;44.54;100376.78;4957425;28;20069;-69
2021/04/15 07:40:17;;;;;;;5.55;4.10;;;;;;;9.50;44.57;100374.59;4957252;28;20115;-66
2021/04/15 07:43:18;;;;;;;6.47;4.07;;;;;;;9.46;44.48;100336.22;4957438;28;20488;-70
2021/04/15 07:46:09;;;;;;;6.82;4.35;;;;;;;9.75;44.08;100371.88;4958970;28;20030;-69
2021/04/15 07:49:12;;;;;;;5.30;4.00;;;;;;;9.86;43.93;100369.97;4959506;28;20062;-69
2021/04/15 07:51:54;;;;;;;6.05;4.00;;;;;;;9.91;44.26;100367.25;4965920;28;20031;-69
2021/04/15 07:54:34;;;;;;;6.63;4.25;;;;;;;10.00;43.88;100367.50;4957974;28;20030;-69
2021/04/15 07:57:33;;;;;;;5.25;4.10;;;;;;;10.08;44.60;100375.09;4957450;28;20019;-69
2021/04/15 08:00:17;;;;;;;6.95;4.43;;;;;;;10.15;44.21;100366.66;4949975;28;20396;-70
2021/04/15 08:03:08;;;;;;;8.07;4.05;;;;;;;10.12;43.78;100371.84;4957070;28;20051;-69
2021/04/15 08:05:52;;;;;;;6.57;4.20;;;;;;;10.11;44.47;100368.28;4959999;28;20361;-70
2021/04/15 08:08:42;;;;;;;4.93;3.88;;;;;;;10.18;44.55;100371.53;4958669;28;20027;-71
2021/04/15 08:11:36;;;;;;;6.70;3.88;;;;;;;10.29;44.02;100374.22;4948290;28;20373;-69
2021/04/15 08:14:18;;;;;;;8.77;4.60;;;;;;;10.34;44.61;100377.75;4945601;28;20019;-70
2021/04/15 08:16:55;;;;;;;9.23;4.13;;;;;;;10.42;44.38;100372.84;4957946;28;20027;-69
2021/04/15 08:19:58;;;;;;;6.38;4.20;;;;;;;10.52;44.50;100376.34;4959928;28;20019;-64
2021/04/15 08:22:42;;;;;;;9.38;4.30;;;;;;;10.53;44.24;100380.72;4949401;28;20083;-67
2021/04/15 08:25:30;;;;;;;8.82;4.53;;;;;;;10.57;44.30;100372.78;4957663;28;20023;-68
2021/04/15 08:28:04;;;;;;;5.32;3.88;;;;;;;10.59;43.99;100372.50;4952639;28;20055;-68
2021/04/15 08:30:58;;;;;;;7.40;4.05;;;;;;;10.67;44.33;100380.09;4957409;28;20513;-67
2021/04/15 08:33:30;;;;;;;5.85;4.07;;;;;;;10.74;43.95;100383.38;4957821;28;20022;-68
2021/04/15 08:36:08;;;;;;;6.47;3.88;;;;;;;10.82;44.08;100385.53;4962524;28;20054;-67
2021/04/15 08:38:55;;;;;;;9.35;4.00;;;;;;;10.89;44.02;100389.84;4961136;28;20070;-66
2021/04/15 08:41:56;;;;;;;8.60;4.10;;;;;;;10.92;43.84;100390.09;4961311;28;20146;-66
2021/04/15 08:44:21;;;;;;;6.97;4.18;;;;;;;10.99;43.57;100379.69;4955088;28;20038;-65
2021/04/15 08:47:24;;;;;;;4.45;3.95;;;;;;;11.08;43.75;100382.63;4960627;28;20031;-67
2021/04/15 08:50:03;;;;;;;8.35;3.80;;;;;;;10.97;43.93;100359.25;4960771;28;20112;-68
2021/04/15 08:52:35;;;;;;;6.75;4.13;;;;;;;11.15;43.63;100383.16;4960848;28;20023;-66
2021/04/15 08:55:07;;;;;;;5.57;4.03;;;;;;;11.21;43.31;100385.84;4960830;28;20030;-67
2021/04/15 08:57:38;;;;;;;7.95;4.25;;;;;;;11.24;43.24;100388.00;4960482;28;20110;-68
2021/04/15 09:00:06;;;;;;;12.05;4.07;;;;;;;11.22;42.92;100380.09;4961186;28;20023;-66
2021/04/15 09:02:50;;;;;;;8.48;4.53;;;;;;;11.24;43.31;100388.00;4955993;28;20090;-68
2021/04/15 09:05:28;;;;;;;8.23;4.32;;;;;;;11.24;43.10;100385.28;4956639;28;20019;-67
2021/04/15 09:08:16;;;;;;;6.03;4.18;;;;;;;11.27;42.51;100381.97;4960103;28;20063;-68
2021/04/15 09:10:52;;;;;;;6.47;4.20;;;;;;;11.27;42.78;100384.69;4959255;28;20034;-67
2021/04/15 09:13:34;;;;;;;8.45;4.10;;;;;;;11.34;42.47;100385.19;4972929;28;20019;-70
2021/04/15 09:16:00;;;;;;;5.75;3.97;;;;;;;11.35;42.85;100384.09;4959667;28;20110;-70
2021/04/15 09:19:00;;;;;;;10.13;4.30;;;;;;;11.37;42.29;100381.06;4969573;28;20058;-70
2021/04/15 09:21:38;;;;;;;5.00;4.10;;;;;;;11.36;42.59;100376.72;4950350;28;20085;-70
2021/04/15 09:24:14;;;;;;;8.60;3.92;;;;;;;11.37;42.79;100373.72;4960489;28;20033;-70
2021/04/15 09:27:37;;;;;;;5.20;4.30;;;;;;;11.52;42.33;100374.69;4960522;28;20020;-68
2021/04/15 09:30:21;;;;;;;4.65;3.78;;;;;;;11.56;42.07;100371.09;4938731;29;20592;-70
2021/04/15 09:32:59;;;;;;;11.38;4.55;;;;;;;11.57;41.82;100367.28;4934322;29;20035;-70
2021/04/15 09:35:41;;;;;;;6.82;4.00;;;;;;;11.55;42.21;100374.13;4953279;28;20047;-70
2021/04/15 09:39:00;;;;;;;9.45;4.13;;;;;;;11.61;41.68;100367.50;4960108;28;20139;-70
2021/04/15 09:41:41;;;;;;;7.00;3.92;;;;;;;11.59;41.78;100362.34;4938268;29;20124;-70
2021/04/15 09:44:35;;;;;;;4.72;3.85;;;;;;;11.64;41.68;100369.69;4955745;28;20027;-70
2021/04/15 09:47:22;;;;;;;7.93;4.72;;;;;;;11.72;41.54;100352.69;4955554;28;20054;-71
2021/04/15 09:50:06;;;;;;;4.45;3.58;;;;;;;11.81;41.45;100356.41;4957384;28;20031;-71
2021/04/15 09:52:48;;;;;;;7.18;4.57;;;;;;;11.89;40.93;100360.44;4956582;28;20076;-70
2021/04/15 09:55:30;;;;;;;5.22;3.60;;;;;;;11.94;40.90;100357.63;4958419;28;20023;-69
2021/04/15 09:58:12;;;;;;;6.07;4.35;;;;;;;11.95;40.47;100351.06;4958973;28;20030;-71
2021/04/15 10:00:41;;;;;;;5.35;3.78;;;;;;;11.94;40.81;100354.91;4959586;28;20034;-70
2021/04/15 10:03:14;;;;;;;7.20;4.57;;;;;;;11.93;40.25;100350.56;4959346;28;20369;-71
2021/04/15 10:05:56;;;;;;;4.97;4.10;;;;;;;11.93;39.98;100347.84;4951487;28;20035;-70
2021/04/15 10:08:46;;;;;;;10.00;4.18;;;;;;;11.99;40.21;100343.13;4958655;28;20037;-71
2021/04/15 10:11:36;;;;;;;6.60;4.10;;;;;;;12.02;39.92;100349.97;4958564;28;20027;-70
2021/04/15 10:14:24;;;;;;;12.20;4.65;;;;;;;12.06;39.71;100349.09;4959154;28;20046;-71
2021/04/15 10:16:58;;;;;;;8.77;4.32;;;;;;;12.06;39.98;100354.56;4958541;28;20467;-71
2021/04/15 10:19:42;;;;;;;6.60;4.72;;;;;;;12.08;39.53;100341.41;4959020;28;20392;-70
2021/04/15 10:22:43;;;;;;;7.70;4.32;;;;;;;12.16;39.81;100348.16;4958625;28;20023;-70
2021/04/15 10:25:27;;;;;;;7.63;4.55;;;;;;;12.19;39.50;100344.03;4936846;28;20054;-69
2021/04/15 10:28:07;;;;;;;6.57;4.00;;;;;;;12.22;39.28;100338.00;4958066;28;20047;-69
2021/04/15 10:31:04;;;;;;;5.78;4.15;;;;;;;12.28;39.47;100345.81;4958545;28;20031;-69
2021/04/15 10:34:07;;;;;;;6.10;4.30;;;;;;;12.37;39.67;100334.25;4959008;28;20022;-70
2021/04/15 10:36:38;;;;;;;7.95;4.30;;;;;;;12.44;39.15;100334.69;4960954;28;20424;-71
2021/04/15 10:39:25;;;;;;;11.15;4.30;;;;;;;12.57;38.80;100331.28;4958559;28;20054;-70
2021/04/15 10:41:50;;;;;;;9.75;5.00;;;;;;;12.62;38.89;100332.28;4958267;28;20035;-70
2021/04/15 10:44:53;;;;;;;7.03;4.43;;;;;;;12.68;38.32;100331.13;4957954;28;20030;-71
2021/04/15 10:47:44;;;;;;;8.27;4.85;;;;;;;12.69;38.48;100330.00;4958421;28;20035;-69
2021/04/15 10:50:21;;;;;;;10.52;4.55;;;;;;;12.72;38.07;100332.16;4947643;28;20034;-69
2021/04/15 10:53:05;;;;;;;8.85;4.85;;;;;;;12.78;37.72;100333.72;4957735;28;20038;-71
2021/04/15 10:55:33;;;;;;;12.02;5.38;;;;;;;12.85;37.56;100333.34;4961494;28;20035;-71
2021/04/15 10:58:34;;;;;;;6.72;4.45;;;;;;;12.96;37.10;100321.16;4958586;28;20506;-70
2021/04/15 11:01:20;;;;;;;9.25;4.68;;;;;;;13.08;36.94;100326.19;4936261;29;20131;-70
2021/04/15 11:03:46;;;;;;;8.70;4.60;;;;;;;13.06;36.79;100306.50;4950524;28;20094;-70
2021/04/15 11:06:48;;;;;;;8.30;4.63;;;;;;;13.35;36.75;100330.13;4957056;28;20043;-70
2021/04/15 11:09:40;;;;;;;7.60;4.53;;;;;;;13.49;36.14;100322.00;4959136;28;20094;-70
2021/04/15 11:12:15;;;;;;;9.32;5.20;;;;;;;13.54;36.08;100317.25;4957658;28;20027;-70
2021/04/15 11:14:57;;;;;;;7.97;5.27;;;;;;;13.60;35.74;100306.19;4956984;28;20078;-69
2021/04/15 11:17:31;;;;;;;11.13;5.25;;;;;;;13.63;35.74;100306.41;4956726;28;20270;-68
2021/04/15 11:20:30;;;;;;;10.20;5.13;;;;;;;13.70;35.16;100300.53;4960991;28;20027;-69
2021/04/15 11:23:06;;;;;;;9.30;5.55;;;;;;;13.72;35.29;100297.50;4954074;28;20195;-65
2021/04/15 11:25:40;;;;;;;6.90;4.75;;;;;;;13.78;35.32;100290.81;4957440;28;20062;-69
2021/04/15 11:28:15;;;;;;;5.38;4.10;;;;;;;13.85;35.24;100289.28;4957216;28;20055;-69
2021/04/15 11:30:46;;;;;;;9.32;4.53;;;;;;;13.99;35.23;100294.78;4957976;28;20114;-68
2021/04/15 11:33:33;;;;;;;8.88;4.78;;;;;;;14.09;35.06;100290.22;4956952;28;20449;-68
2021/04/15 11:36:10;;;;;;;6.65;4.78;;;;;;;14.17;34.67;100290.28;4945901;28;20050;-68
2021/04/15 11:38:35;;;;;;;10.52;5.30;;;;;;;14.24;34.41;100280.88;4958168;28;20082;-68
2021/04/15 11:41:01;;;;;;;7.65;4.13;;;;;;;14.31;34.97;100282.06;4957853;28;20031;-69
2021/04/15 11:43:36;;;;;;;9.13;4.75;;;;;;;14.40;33.96;100273.13;4958216;28;20089;-68
2021/04/15 11:46:23;;;;;;;8.13;4.95;;;;;;;14.44;33.33;100277.69;4957841;28;20110;-69
2021/04/15 11:49:13;;;;;;;8.75;5.10;;;;;;;14.39;33.83;100246.78;4957687;28;20023;-69
2021/04/15 11:51:55;;;;;;;7.28;4.50;;;;;;;14.53;33.25;100255.84;4953035;28;20027;-68
2021/04/15 11:54:29;;;;;;;9.10;4.65;;;;;;;14.61;33.38;100257.00;4957596;28;20030;-69
2021/04/15 11:56:55;;;;;;;8.20;4.45;;;;;;;14.62;33.24;100244.91;4957382;28;20024;-69
2021/04/15 11:59:25;;;;;;;8.40;4.68;;;;;;;14.69;33.09;100244.53;4969566;28;20112;-68
2021/04/15 12:01:52;;;;;;;6.60;4.38;;;;;;;14.73;32.80;100249.09;4957836;28;20023;-69
2021/04/15 12:04:26;;;;;;;8.68;4.60;;;;;;;14.76;32.65;100248.47;4957483;28;20046;-69
2021/04/15 12:06:58;;;;;;;10.25;4.93;;;;;;;14.73;32.55;100240.84;4956249;28;20102;-69
2021/04/15 12:09:32;;;;;;;10.50;4.47;;;;;;;14.78;32.37;100243.47;4961777;28;20027;-69
2021/04/15 12:12:41;;;;;;;5.80;4.00;;;;;;;14.80;30.50;100240.41;4956700;28;20030;-66
2021/04/15 12:15:12;;;;;;;8.35;4.22;;;;;;;14.78;31.22;100245.41;4961120;28;20047;-69
2021/04/15 12:17:51;;;;;;;9.80;4.68;;;;;;;14.80;29.50;100240.41;4960451;28;20038;-69